createdAt,value
2017-04-02T00:00:42.161Z,11.9
2017-04-02T00:01:44.416Z,11.9
2017-04-02T00:02:46.588Z,11.9
2017-04-02T00:03:48.423Z,12
2017-04-02T00:04:50.261Z,12
2017-04-02T00:05:52.086Z,11.9
2017-04-02T00:06:54.260Z,11.8
2017-04-02T00:07:56.090Z,11.8
2017-04-02T00:08:57.924Z,11.9
2017-04-02T00:09:59.770Z,11.9
2017-04-02T00:11:01.625Z,11.8
2017-04-02T00:12:03.470Z,11.9
2017-04-02T00:13:05.305Z,12.1
2017-04-02T00:14:07.133Z,12.1
2017-04-02T00:15:09.232Z,12
2017-04-02T00:16:11.411Z,12.1
2017-04-02T00:17:13.239Z,12.2
2017-04-02T00:18:15.068Z,12.2
2017-04-02T00:19:16.901Z,12.2
2017-04-02T00:20:19.075Z,12.1
2017-04-02T00:21:20.910Z,12.1
2017-04-02T00:22:23.185Z,12.1
2017-04-02T00:23:25.013Z,12.1
2017-04-02T00:24:26.847Z,12.1
2017-04-02T00:25:28.718Z,12.2
2017-04-02T00:26:30.890Z,12.2
2017-04-02T00:27:32.714Z,12.2
2017-04-02T00:28:34.554Z,12.2
2017-04-02T00:29:36.821Z,12.2
2017-04-02T00:30:38.652Z,12.2
2017-04-02T00:31:40.477Z,12.2
2017-04-02T00:32:42.311Z,12.2
2017-04-02T00:33:44.146Z,12.2
2017-04-02T00:34:46.016Z,12.2
2017-04-02T00:35:48.191Z,12.2
2017-04-02T00:36:50.363Z,12.1
2017-04-02T00:37:52.245Z,12
2017-04-02T00:38:54.073Z,11.9
2017-04-02T00:39:55.911Z,11.8
2017-04-02T00:40:58.085Z,11.7
2017-04-02T00:41:59.919Z,11.7
2017-04-02T00:43:01.751Z,11.7
2017-04-02T00:44:03.578Z,11.6
2017-04-02T00:45:05.411Z,11.6
2017-04-02T00:46:07.250Z,11.5
2017-04-02T00:47:09.083Z,11.5
2017-04-02T00:48:10.914Z,11.4
2017-04-02T00:49:12.745Z,11.4
2017-04-02T00:50:14.583Z,11.5
2017-04-02T00:51:16.410Z,11.5
2017-04-02T00:52:18.246Z,11.5
2017-04-02T00:53:20.074Z,11.5
2017-04-02T00:54:21.901Z,11.5
2017-04-02T00:55:23.733Z,11.5
2017-04-02T00:56:25.561Z,11.4
2017-04-02T00:57:27.757Z,11.4
2017-04-02T00:58:29.585Z,11.4
2017-04-02T00:59:31.421Z,11.4
2017-04-02T01:00:33.250Z,11.4
2017-04-02T01:01:35.132Z,11.3
2017-04-02T01:02:36.968Z,11.3
2017-04-02T01:03:39.135Z,11.3
2017-04-02T01:04:40.970Z,11.4
2017-04-02T01:05:42.803Z,11.3
2017-04-02T01:06:44.634Z,11.2
2017-04-02T01:07:46.466Z,11.2
2017-04-02T01:08:48.286Z,11.2
2017-04-02T01:09:50.113Z,11.2
2017-04-02T01:10:52.637Z,11.1
2017-04-02T01:11:54.472Z,11.1
2017-04-02T01:12:56.342Z,11.1
2017-04-02T01:13:58.176Z,11.1
2017-04-02T01:15:00.007Z,11.1
2017-04-02T01:16:01.837Z,11
2017-04-02T01:17:03.676Z,11
2017-04-02T01:18:05.500Z,11
2017-04-02T01:19:07.669Z,11
2017-04-02T01:20:09.498Z,10.9
2017-04-02T01:21:11.814Z,10.9
2017-04-02T01:22:13.649Z,10.9
2017-04-02T01:23:15.484Z,10.9
2017-04-02T01:24:17.316Z,10.9
2017-04-02T01:25:19.152Z,10.9
2017-04-02T01:26:20.982Z,10.9
2017-04-02T01:27:22.808Z,10.9
2017-04-02T01:28:24.630Z,10.9
2017-04-02T01:29:26.465Z,10.9
2017-04-02T01:30:28.292Z,10.9
2017-04-02T01:31:30.121Z,10.8
2017-04-02T01:32:31.954Z,10.8
2017-04-02T01:33:33.780Z,10.8
2017-04-02T01:34:35.618Z,10.9
2017-04-02T01:35:37.443Z,10.9
2017-04-02T01:36:39.275Z,10.8
2017-04-02T01:37:41.112Z,10.9
2017-04-02T01:38:42.950Z,10.8
2017-04-02T01:39:44.778Z,10.9
2017-04-02T01:40:46.607Z,10.9
2017-04-02T01:41:48.448Z,10.9
2017-04-02T01:42:50.273Z,10.9
2017-04-02T01:43:52.104Z,10.9
2017-04-02T01:44:53.940Z,10.9
2017-04-02T01:45:55.767Z,10.9
2017-04-02T01:46:57.609Z,10.9
2017-04-02T01:47:59.438Z,10.9
2017-04-02T01:49:01.273Z,10.9
2017-04-02T01:50:03.436Z,10.8
2017-04-02T01:51:05.275Z,10.8
2017-04-02T01:52:07.439Z,10.8
2017-04-02T01:53:09.604Z,10.8
2017-04-02T01:54:11.431Z,10.8
2017-04-02T01:55:13.270Z,10.9
2017-04-02T01:56:15.101Z,10.8
2017-04-02T01:57:16.926Z,10.8
2017-04-02T01:58:18.769Z,10.8
2017-04-02T01:59:20.593Z,10.8
2017-04-02T02:00:22.426Z,10.8
2017-04-02T02:01:24.600Z,10.7
2017-04-02T02:02:26.433Z,10.7
2017-04-02T02:03:28.264Z,10.7
2017-04-02T02:04:30.092Z,10.6
2017-04-02T02:05:31.918Z,10.6
2017-04-02T02:06:33.743Z,10.6
2017-04-02T02:07:35.579Z,10.6
2017-04-02T02:08:37.406Z,10.6
2017-04-02T02:09:39.234Z,10.6
2017-04-02T02:10:41.065Z,10.6
2017-04-02T02:11:42.895Z,10.6
2017-04-02T02:12:44.727Z,10.6
2017-04-02T02:13:46.594Z,10.6
2017-04-02T02:14:48.424Z,10.6
2017-04-02T02:15:50.260Z,10.6
2017-04-02T02:16:52.090Z,10.6
2017-04-02T02:17:53.923Z,10.6
2017-04-02T02:18:55.755Z,10.6
2017-04-02T02:19:57.593Z,10.6
2017-04-02T02:20:59.425Z,10.7
2017-04-02T02:22:01.255Z,10.7
2017-04-02T02:23:03.079Z,10.6
2017-04-02T02:24:05.258Z,10.6
2017-04-02T02:25:07.091Z,10.6
2017-04-02T02:26:08.926Z,10.7
2017-04-02T02:27:10.764Z,10.7
2017-04-02T02:28:12.598Z,10.7
2017-04-02T02:29:14.431Z,10.8
2017-04-02T02:30:16.261Z,10.7
2017-04-02T02:31:18.086Z,10.6
2017-04-02T02:32:19.923Z,10.6
2017-04-02T02:33:21.754Z,10.6
2017-04-02T02:34:23.584Z,10.6
2017-04-02T02:35:25.443Z,10.6
2017-04-02T02:36:27.607Z,10.6
2017-04-02T02:37:29.828Z,10.6
2017-04-02T02:38:31.652Z,10.7
2017-04-02T02:39:33.487Z,10.7
2017-04-02T02:40:35.655Z,10.7
2017-04-02T02:41:37.485Z,10.7
2017-04-02T02:42:39.666Z,10.6
2017-04-02T02:43:41.496Z,10.6
2017-04-02T02:44:43.328Z,10.6
2017-04-02T02:45:45.158Z,10.6
2017-04-02T02:46:46.988Z,10.6
2017-04-02T02:47:48.814Z,10.6
2017-04-02T02:48:50.654Z,10.5
2017-04-02T02:49:52.490Z,10.5
2017-04-02T02:50:54.319Z,10.5
2017-04-02T02:51:56.143Z,10.5
2017-04-02T02:52:57.983Z,10.5
2017-04-02T02:53:59.810Z,10.5
2017-04-02T02:55:01.644Z,10.6
2017-04-02T02:56:03.809Z,10.6
2017-04-02T02:57:05.639Z,10.6
2017-04-02T02:58:07.469Z,10.6
2017-04-02T02:59:09.306Z,10.6
2017-04-02T03:00:11.136Z,10.6
2017-04-02T03:01:12.971Z,10.5
2017-04-02T03:02:14.807Z,10.5
2017-04-02T03:03:16.640Z,10.5
2017-04-02T03:04:18.471Z,10.5
2017-04-02T03:05:20.298Z,10.5
2017-04-02T03:06:22.128Z,10.5
2017-04-02T03:07:23.967Z,10.5
2017-04-02T03:08:26.145Z,10.5
2017-04-02T03:09:28.006Z,10.6
2017-04-02T03:10:29.837Z,10.5
2017-04-02T03:11:32.001Z,10.6
2017-04-02T03:12:33.831Z,10.6
2017-04-02T03:13:35.660Z,10.6
2017-04-02T03:14:37.487Z,10.6
2017-04-02T03:15:39.322Z,10.6
2017-04-02T03:16:41.153Z,10.5
2017-04-02T03:17:42.982Z,10.5
2017-04-02T03:18:44.815Z,10.6
2017-04-02T03:19:46.649Z,10.5
2017-04-02T03:20:48.484Z,10.5
2017-04-02T03:21:50.312Z,10.5
2017-04-02T03:22:52.144Z,10.6
2017-04-02T03:23:54.007Z,10.6
2017-04-02T03:24:55.843Z,10.6
2017-04-02T03:25:57.692Z,10.5
2017-04-02T03:26:59.874Z,10.6
2017-04-02T03:28:01.713Z,10.6
2017-04-02T03:29:03.540Z,10.6
2017-04-02T03:30:05.379Z,10.6
2017-04-02T03:31:07.550Z,10.6
2017-04-02T03:32:09.380Z,10.6
2017-04-02T03:33:11.202Z,10.6
2017-04-02T03:34:13.039Z,10.7
2017-04-02T03:35:14.873Z,10.6
2017-04-02T03:36:16.704Z,10.6
2017-04-02T03:37:18.535Z,10.6
2017-04-02T03:38:20.369Z,10.6
2017-04-02T03:39:22.197Z,10.6
2017-04-02T03:40:24.030Z,10.6
2017-04-02T03:41:26.541Z,10.6
2017-04-02T03:42:28.365Z,10.5
2017-04-02T03:43:30.228Z,10.5
2017-04-02T03:44:32.064Z,10.5
2017-04-02T03:45:33.891Z,10.4
2017-04-02T03:46:35.726Z,10.4
2017-04-02T03:47:37.554Z,10.4
2017-04-02T03:48:39.392Z,10.4
2017-04-02T03:49:41.223Z,10.5
2017-04-02T03:50:43.053Z,10.5
2017-04-02T03:51:44.887Z,10.5
2017-04-02T03:52:46.713Z,10.5
2017-04-02T03:53:48.545Z,10.5
2017-04-02T03:54:50.373Z,10.5
2017-04-02T03:55:52.208Z,10.5
2017-04-02T03:56:54.417Z,10.5
2017-04-02T03:57:56.250Z,10.5
2017-04-02T03:58:58.079Z,10.5
2017-04-02T03:59:59.912Z,10.5
2017-04-02T04:01:01.745Z,10.5
2017-04-02T04:02:03.592Z,10.5
2017-04-02T04:03:05.451Z,10.5
2017-04-02T04:04:07.285Z,10.5
2017-04-02T04:05:09.116Z,10.5
2017-04-02T04:06:10.952Z,10.5
2017-04-02T04:07:13.129Z,10.5
2017-04-02T04:08:14.959Z,10.5
2017-04-02T04:09:16.789Z,10.4
2017-04-02T04:10:18.619Z,10.5
2017-04-02T04:11:20.453Z,10.5
2017-04-02T04:12:22.284Z,10.5
2017-04-02T04:13:24.179Z,10.5
2017-04-02T04:14:26.359Z,10.5
2017-04-02T04:15:28.190Z,10.5
2017-04-02T04:16:30.023Z,10.5
2017-04-02T04:17:31.850Z,10.5
2017-04-02T04:18:33.686Z,10.5
2017-04-02T04:19:35.513Z,10.5
2017-04-02T04:20:37.345Z,10.5
2017-04-02T04:21:39.212Z,10.5
2017-04-02T04:22:41.054Z,10.5
2017-04-02T04:23:42.882Z,10.5
2017-04-02T04:24:44.721Z,10.5
2017-04-02T04:25:46.895Z,10.5
2017-04-02T04:26:48.732Z,10.5
2017-04-02T04:27:50.565Z,10.5
2017-04-02T04:28:52.395Z,10.5
2017-04-02T04:29:54.224Z,10.5
2017-04-02T04:30:56.056Z,10.5
2017-04-02T04:31:57.894Z,10.5
2017-04-02T04:32:59.723Z,10.4
2017-04-02T04:34:01.565Z,10.5
2017-04-02T04:35:03.759Z,10.5
2017-04-02T04:36:05.614Z,10.5
2017-04-02T04:37:07.442Z,10.5
2017-04-02T04:38:09.277Z,10.5
2017-04-02T04:39:11.112Z,10.5
2017-04-02T04:40:12.944Z,10.5
2017-04-02T04:41:14.822Z,10.5
2017-04-02T04:42:16.651Z,10.4
2017-04-02T04:43:18.824Z,10.4
2017-04-02T04:44:20.651Z,10.4
2017-04-02T04:45:22.824Z,10.4
2017-04-02T04:46:24.659Z,10.5
2017-04-02T04:47:26.506Z,10.5
2017-04-02T04:48:28.352Z,10.4
2017-04-02T04:49:30.191Z,10.4
2017-04-02T04:50:32.027Z,10.4
2017-04-02T04:51:33.846Z,10.4
2017-04-02T04:52:35.689Z,10.4
2017-04-02T04:53:37.519Z,10.5
2017-04-02T04:54:39.350Z,10.4
2017-04-02T04:55:41.187Z,10.5
2017-04-02T04:56:43.013Z,10.5
2017-04-02T04:57:44.839Z,10.5
2017-04-02T04:58:46.666Z,10.5
2017-04-02T04:59:48.508Z,10.5
2017-04-02T05:00:50.369Z,10.5
2017-04-02T05:01:52.201Z,10.5
2017-04-02T05:02:54.054Z,10.4
2017-04-02T05:03:55.894Z,10.5
2017-04-02T05:04:57.730Z,10.5
2017-04-02T05:05:59.908Z,10.4
2017-04-02T05:07:01.784Z,10.4
2017-04-02T05:08:03.611Z,10.4
2017-04-02T05:09:05.443Z,10.4
2017-04-02T05:10:07.280Z,10.5
2017-04-02T05:11:09.119Z,10.4
2017-04-02T05:12:11.290Z,10.4
2017-04-02T05:13:13.124Z,10.4
2017-04-02T05:14:14.961Z,10.4
2017-04-02T05:15:16.789Z,10.4
2017-04-02T05:16:18.625Z,10.4
2017-04-02T05:17:20.465Z,10.4
2017-04-02T05:18:22.301Z,10.4
2017-04-02T05:19:24.464Z,10.5
2017-04-02T05:20:26.290Z,10.5
2017-04-02T05:21:28.138Z,10.5
2017-04-02T05:22:29.980Z,10.5
2017-04-02T05:23:31.821Z,10.6
2017-04-02T05:24:33.645Z,10.5
2017-04-02T05:25:35.479Z,10.5
2017-04-02T05:26:37.309Z,10.6
2017-04-02T05:27:39.470Z,10.5
2017-04-02T05:28:41.311Z,10.6
2017-04-02T05:29:43.221Z,10.6
2017-04-02T05:30:45.054Z,10.6
2017-04-02T05:31:46.898Z,10.6
2017-04-02T05:32:48.792Z,10.6
2017-04-02T05:33:50.646Z,10.6
2017-04-02T05:34:52.475Z,10.7
2017-04-02T05:35:54.696Z,10.7
2017-04-02T05:36:56.516Z,10.6
2017-04-02T05:37:58.370Z,10.7
2017-04-02T05:39:00.539Z,10.7
2017-04-02T05:40:02.378Z,10.7
2017-04-02T05:41:04.203Z,10.7
2017-04-02T05:42:06.386Z,10.7
2017-04-02T05:43:08.223Z,10.7
2017-04-02T05:44:10.054Z,10.8
2017-04-02T05:45:11.892Z,10.7
2017-04-02T05:46:13.727Z,10.8
2017-04-02T05:47:15.568Z,10.8
2017-04-02T05:48:17.399Z,10.8
2017-04-02T05:49:19.223Z,10.8
2017-04-02T05:50:21.051Z,10.8
2017-04-02T05:51:23.228Z,10.8
2017-04-02T05:52:25.401Z,10.8
2017-04-02T05:53:27.234Z,10.8
2017-04-02T05:54:29.093Z,10.8
2017-04-02T05:55:30.920Z,10.8
2017-04-02T05:56:32.747Z,10.8
2017-04-02T05:57:34.578Z,10.9
2017-04-02T05:58:36.406Z,10.9
2017-04-02T05:59:38.571Z,10.9
2017-04-02T06:00:40.407Z,10.8
2017-04-02T06:01:42.234Z,10.9
2017-04-02T06:02:44.060Z,10.9
2017-04-02T06:03:45.889Z,10.9
2017-04-02T06:04:47.717Z,10.9
2017-04-02T06:05:49.552Z,10.9
2017-04-02T06:06:51.722Z,10.9
2017-04-02T06:07:53.551Z,10.9
2017-04-02T06:08:55.380Z,10.9
2017-04-02T06:09:57.216Z,10.9
2017-04-02T06:10:59.048Z,10.9
2017-04-02T06:12:00.878Z,10.9
2017-04-02T06:13:02.706Z,10.9
2017-04-02T06:14:04.545Z,10.9
2017-04-02T06:15:06.374Z,10.9
2017-04-02T06:16:08.196Z,10.9
2017-04-02T06:17:10.032Z,10.9
2017-04-02T06:18:11.865Z,10.9
2017-04-02T06:19:14.030Z,11
2017-04-02T06:20:15.864Z,11
2017-04-02T06:21:17.692Z,11
2017-04-02T06:22:19.554Z,11
2017-04-02T06:23:21.385Z,10.9
2017-04-02T06:24:23.219Z,10.9
2017-04-02T06:25:25.397Z,10.9
2017-04-02T06:26:27.224Z,10.9
2017-04-02T06:27:29.059Z,10.9
2017-04-02T06:28:30.927Z,11
2017-04-02T06:29:32.763Z,11
2017-04-02T06:30:34.598Z,10.9
2017-04-02T06:31:36.423Z,11
2017-04-02T06:32:38.257Z,11.1
2017-04-02T06:33:40.083Z,11.1
2017-04-02T06:34:41.910Z,11
2017-04-02T06:35:43.731Z,11
2017-04-02T06:36:45.563Z,11
2017-04-02T06:37:47.390Z,11
2017-04-02T06:38:49.229Z,11
2017-04-02T06:39:51.077Z,11
2017-04-02T06:40:52.917Z,11
2017-04-02T06:41:54.753Z,11
2017-04-02T06:42:56.592Z,11.1
2017-04-02T06:43:58.419Z,11
2017-04-02T06:45:00.244Z,11
2017-04-02T06:46:02.085Z,11
2017-04-02T06:47:03.923Z,11
2017-04-02T06:48:05.749Z,11
2017-04-02T06:49:07.583Z,11
2017-04-02T06:50:09.765Z,11
2017-04-02T06:51:11.590Z,11
2017-04-02T06:52:13.423Z,11
2017-04-02T06:53:15.589Z,11
2017-04-02T06:54:17.416Z,11
2017-04-02T06:55:19.253Z,11.1
2017-04-02T06:56:21.082Z,11
2017-04-02T06:57:22.914Z,11
2017-04-02T06:58:25.072Z,11
2017-04-02T06:59:26.907Z,11
2017-04-02T07:00:28.782Z,10.9
2017-04-02T07:01:31.413Z,11
2017-04-02T07:02:33.273Z,11
2017-04-02T07:03:35.099Z,10.9
2017-04-02T07:04:36.958Z,10.9
2017-04-02T07:05:38.801Z,11
2017-04-02T07:06:40.638Z,11
2017-04-02T07:07:42.474Z,11
2017-04-02T07:08:44.303Z,11.1
2017-04-02T07:09:46.132Z,11.1
2017-04-02T07:10:47.971Z,11
2017-04-02T07:11:50.074Z,11
2017-04-02T07:12:52.330Z,11.1
2017-04-02T07:13:54.273Z,11.1
2017-04-02T07:14:56.121Z,11.1
2017-04-02T07:15:57.962Z,11.1
2017-04-02T07:16:59.782Z,11.1
2017-04-02T07:18:01.613Z,11.1
2017-04-02T07:19:03.441Z,11.3
2017-04-02T07:20:05.277Z,11.2
2017-04-02T07:21:07.119Z,11.2
2017-04-02T07:22:08.950Z,11.1
2017-04-02T07:23:11.170Z,11.1
2017-04-02T07:24:13.003Z,11.2
2017-04-02T07:25:15.348Z,11.1
2017-04-02T07:26:17.521Z,11.2
2017-04-02T07:27:19.349Z,11.2
2017-04-02T07:28:21.529Z,11.1
2017-04-02T07:29:25.121Z,11.2
2017-04-02T07:30:26.959Z,11.3
2017-04-02T07:31:28.792Z,11.2
2017-04-02T07:32:30.618Z,11.2
2017-04-02T07:33:32.446Z,11.1
2017-04-02T07:34:34.275Z,11.1
2017-04-02T07:35:36.111Z,11
2017-04-02T07:36:37.936Z,11
2017-04-02T07:37:39.822Z,11
2017-04-02T07:38:41.650Z,11
2017-04-02T07:39:43.476Z,10.9
2017-04-02T07:40:45.307Z,11
2017-04-02T07:41:47.137Z,11
2017-04-02T07:42:48.978Z,11
2017-04-02T07:43:50.815Z,10.9
2017-04-02T07:44:52.645Z,10.9
2017-04-02T07:45:54.810Z,10.9
2017-04-02T07:46:56.648Z,10.9
2017-04-02T07:47:58.481Z,10.9
2017-04-02T07:49:00.306Z,10.9
2017-04-02T07:50:02.140Z,10.9
2017-04-02T07:51:03.978Z,10.9
2017-04-02T07:52:05.814Z,10.8
2017-04-02T07:53:07.645Z,10.9
2017-04-02T07:54:09.474Z,10.9
2017-04-02T07:55:11.301Z,10.9
2017-04-02T07:56:13.125Z,10.9
2017-04-02T07:57:14.955Z,10.9
2017-04-02T07:58:16.788Z,10.9
2017-04-02T07:59:18.615Z,10.9
2017-04-02T08:00:20.442Z,10.9
2017-04-02T08:01:22.612Z,10.9
2017-04-02T08:02:24.789Z,11
2017-04-02T08:03:26.613Z,11
2017-04-02T08:04:28.453Z,11
2017-04-02T08:05:30.281Z,11
2017-04-02T08:06:32.119Z,11.1
2017-04-02T08:07:33.950Z,11.1
2017-04-02T08:08:36.118Z,11.2
2017-04-02T08:09:37.941Z,11.2
2017-04-02T08:10:39.777Z,11.2
2017-04-02T08:11:41.948Z,11.3
2017-04-02T08:12:43.785Z,11.3
2017-04-02T08:13:45.613Z,11.3
2017-04-02T08:14:47.453Z,11.3
2017-04-02T08:15:49.282Z,11.3
2017-04-02T08:16:51.464Z,11.3
2017-04-02T08:17:53.290Z,11.4
2017-04-02T08:18:55.121Z,11.4
2017-04-02T08:19:56.951Z,11.4
2017-04-02T08:20:58.787Z,11.4
2017-04-02T08:22:00.614Z,11.4
2017-04-02T08:23:02.447Z,11.5
2017-04-02T08:24:04.290Z,11.5
2017-04-02T08:25:06.468Z,11.5
2017-04-02T08:26:08.299Z,11.3
2017-04-02T08:27:10.133Z,11.4
2017-04-02T08:28:12.302Z,11.4
2017-04-02T08:29:14.137Z,11.5
2017-04-02T08:30:15.974Z,11.4
2017-04-02T08:31:17.803Z,11.4
2017-04-02T08:32:19.630Z,11.5
2017-04-02T08:33:21.463Z,11.5
2017-04-02T08:34:23.289Z,11.5
2017-04-02T08:35:25.463Z,11.6
2017-04-02T08:36:27.292Z,11.5
2017-04-02T08:37:29.126Z,11.5
2017-04-02T08:38:30.956Z,11.5
2017-04-02T08:39:32.790Z,11.6
2017-04-02T08:40:34.619Z,11.5
2017-04-02T08:41:36.789Z,11.6
2017-04-02T08:42:38.621Z,11.6
2017-04-02T08:43:40.451Z,11.7
2017-04-02T08:44:42.278Z,11.7
2017-04-02T08:45:44.117Z,11.7
2017-04-02T08:46:45.944Z,11.7
2017-04-02T08:47:48.110Z,11.5
2017-04-02T08:48:49.937Z,11.6
2017-04-02T08:49:51.773Z,11.6
2017-04-02T08:50:53.627Z,11.6
2017-04-02T08:51:55.462Z,11.6
2017-04-02T08:52:57.302Z,11.6
2017-04-02T08:53:59.140Z,11.7
2017-04-02T08:55:00.977Z,11.6
2017-04-02T08:56:02.806Z,11.5
2017-04-02T08:57:04.637Z,11.6
2017-04-02T08:58:06.513Z,11.9
2017-04-02T08:59:08.692Z,11.9
2017-04-02T09:00:10.526Z,11.9
2017-04-02T09:01:12.378Z,12
2017-04-02T09:02:14.215Z,11.9
2017-04-02T09:03:16.042Z,11.9
2017-04-02T09:04:18.266Z,12
2017-04-02T09:05:20.175Z,12.1
2017-04-02T09:06:22.854Z,12.1
2017-04-02T09:07:25.301Z,12.2
2017-04-02T09:08:27.793Z,12.3
2017-04-02T09:09:30.169Z,12.2
2017-04-02T09:10:32.589Z,12.2
2017-04-02T09:11:34.865Z,12.3
2017-04-02T09:12:36.708Z,12.3
2017-04-02T09:13:38.634Z,12.4
2017-04-02T09:14:40.730Z,12.4
2017-04-02T09:15:43.191Z,12.5
2017-04-02T09:16:46.425Z,12.5
2017-04-02T09:17:48.402Z,12.4
2017-04-02T09:18:59.625Z,12.5
2017-04-02T09:20:01.466Z,12.4
2017-04-02T09:21:04.131Z,12.7
2017-04-02T09:22:06.537Z,12.8
2017-04-02T09:23:08.825Z,12.8
2017-04-02T09:24:10.668Z,13.1
2017-04-02T09:25:13.254Z,12.8
2017-04-02T09:26:15.781Z,12.9
2017-04-02T09:27:18.022Z,12.8
2017-04-02T09:28:19.862Z,12.8
2017-04-02T09:29:22.495Z,12.6
2017-04-02T09:30:25.070Z,12.9
2017-04-02T09:31:26.990Z,13
2017-04-02T09:32:29.181Z,13.1
2017-04-02T09:33:31.061Z,13
2017-04-02T09:34:32.890Z,13.1
2017-04-02T09:35:34.847Z,13.1
2017-04-02T09:36:37.388Z,13.1
2017-04-02T09:37:39.583Z,13.1
2017-04-02T09:38:41.569Z,13.2
2017-04-02T09:39:44.134Z,13.3
2017-04-02T09:40:46.393Z,12.9
2017-04-02T09:41:49.187Z,13.2
2017-04-02T09:42:51.021Z,13.4
2017-04-02T09:43:53.019Z,13.7
2017-04-02T09:44:55.162Z,13.8
2017-04-02T09:45:57.184Z,14
2017-04-02T09:46:59.991Z,14.3
2017-04-02T09:48:01.834Z,14.3
2017-04-02T09:49:03.995Z,14
2017-04-02T09:50:06.009Z,14.2
2017-04-02T09:51:07.842Z,14.2
2017-04-02T09:52:09.679Z,14.2
2017-04-02T09:53:11.667Z,14.2
2017-04-02T09:54:13.808Z,14.3
2017-04-02T09:55:15.644Z,14.2
2017-04-02T09:56:17.471Z,13.9
2017-04-02T09:57:19.317Z,14.1
2017-04-02T09:58:21.191Z,14.2
2017-04-02T09:59:23.286Z,14.3
2017-04-02T10:00:25.124Z,14.4
2017-04-02T10:01:26.963Z,14.3
2017-04-02T10:02:28.800Z,14.3
2017-04-02T10:03:30.641Z,14.5
2017-04-02T10:04:32.874Z,14.7
2017-04-02T10:05:34.729Z,15
2017-04-02T10:06:36.566Z,15.3
2017-04-02T10:07:38.413Z,15.4
2017-04-02T10:08:40.249Z,15.5
2017-04-02T10:09:42.408Z,15.4
2017-04-02T10:10:44.468Z,15.3
2017-04-02T10:11:46.311Z,15.6
2017-04-02T10:12:48.149Z,15.8
2017-04-02T10:13:50.034Z,15.8
2017-04-02T10:14:51.874Z,15.3
2017-04-02T10:15:54.067Z,15.3
2017-04-02T10:16:55.913Z,15.8
2017-04-02T10:17:57.753Z,15.7
2017-04-02T10:18:59.593Z,16.2
2017-04-02T10:20:01.434Z,16.3
2017-04-02T10:21:03.273Z,16
2017-04-02T10:22:05.104Z,16.4
2017-04-02T10:23:06.948Z,16.5
2017-04-02T10:24:08.795Z,16.4
2017-04-02T10:25:10.639Z,16.5
2017-04-02T10:26:12.481Z,16.1
2017-04-02T10:27:14.633Z,16.5
2017-04-02T10:28:16.477Z,16.6
2017-04-02T10:29:18.318Z,16.7
2017-04-02T10:30:20.164Z,16.5
2017-04-02T10:31:22.005Z,16.2
2017-04-02T10:32:23.852Z,16.9
2017-04-02T10:33:25.692Z,16.9
2017-04-02T10:34:27.532Z,17.3
2017-04-02T10:35:29.609Z,17.4
2017-04-02T10:36:31.456Z,17.2
2017-04-02T10:37:33.294Z,17.3
2017-04-02T10:38:35.134Z,17.1
2017-04-02T10:39:36.981Z,17.7
2017-04-02T10:40:38.860Z,17.4
2017-04-02T10:41:40.710Z,17.4
2017-04-02T10:42:42.559Z,17.4
2017-04-02T10:43:44.648Z,17.4
2017-04-02T10:44:46.493Z,17.4
2017-04-02T10:45:48.686Z,17.6
2017-04-02T10:46:50.548Z,17.9
2017-04-02T10:47:52.404Z,17.8
2017-04-02T10:48:54.256Z,18
2017-04-02T10:49:56.511Z,18.1
2017-04-02T10:50:58.351Z,17.5
2017-04-02T10:52:00.195Z,17.7
2017-04-02T10:53:02.037Z,17.4
2017-04-02T10:54:03.881Z,17.2
2017-04-02T10:55:05.724Z,16.9
2017-04-02T10:56:07.574Z,16.9
2017-04-02T10:57:09.792Z,17.2
2017-04-02T10:58:11.629Z,17.3
2017-04-02T10:59:13.484Z,17.9
2017-04-02T11:00:15.676Z,17.7
2017-04-02T11:01:17.521Z,17.8
2017-04-02T11:02:19.368Z,18.1
2017-04-02T11:03:21.426Z,17.9
2017-04-02T11:04:23.274Z,17.4
2017-04-02T11:05:25.123Z,17.7
2017-04-02T11:06:26.974Z,17.4
2017-04-02T11:07:28.809Z,17.3
2017-04-02T11:08:30.662Z,17.2
2017-04-02T11:09:32.514Z,17.5
2017-04-02T11:10:34.419Z,17.7
2017-04-02T11:11:36.261Z,17.7
2017-04-02T11:12:38.106Z,17.9
2017-04-02T11:13:39.960Z,18.3
2017-04-02T11:14:41.811Z,18.3
2017-04-02T11:15:43.666Z,18.3
2017-04-02T11:16:45.508Z,18.4
2017-04-02T11:17:47.357Z,18
2017-04-02T11:18:49.197Z,18
2017-04-02T11:19:51.036Z,18.8
2017-04-02T11:20:52.878Z,18.8
2017-04-02T11:21:54.730Z,18.8
2017-04-02T11:22:56.580Z,18.7
2017-04-02T11:23:58.434Z,19.2
2017-04-02T11:25:00.273Z,18.9
2017-04-02T11:26:02.134Z,18.6
2017-04-02T11:27:04.343Z,17.8
2017-04-02T11:28:06.533Z,17.7
2017-04-02T11:29:08.380Z,17.9
2017-04-02T11:30:10.229Z,17.5
2017-04-02T11:31:12.094Z,17.8
2017-04-02T11:32:13.938Z,18.3
2017-04-02T11:33:16.151Z,18.3
2017-04-02T11:34:18.003Z,18.1
2017-04-02T11:35:19.849Z,17.6
2017-04-02T11:36:21.705Z,17.6
2017-04-02T11:37:23.550Z,17.7
2017-04-02T11:38:25.732Z,17.5
2017-04-02T11:39:27.576Z,18
2017-04-02T11:40:29.426Z,17.7
2017-04-02T11:41:31.272Z,17.6
2017-04-02T11:42:33.195Z,18.3
2017-04-02T11:43:35.042Z,18.2
2017-04-02T11:44:36.894Z,18.8
2017-04-02T11:45:38.735Z,18.3
2017-04-02T11:46:40.611Z,18.5
2017-04-02T11:47:42.460Z,18.7
2017-04-02T11:48:44.640Z,18.2
2017-04-02T11:49:46.833Z,18.2
2017-04-02T11:50:48.673Z,17
2017-04-02T11:51:50.516Z,17
2017-04-02T11:52:52.363Z,17.4
2017-04-02T11:53:54.210Z,17.2
2017-04-02T11:54:56.049Z,17.2
2017-04-02T11:55:57.893Z,17.2
2017-04-02T11:56:59.737Z,17.1
2017-04-02T11:58:01.588Z,16.8
2017-04-02T11:59:03.434Z,17.1
2017-04-02T12:00:05.272Z,17.3
2017-04-02T12:01:07.125Z,17.5
2017-04-02T12:02:09.314Z,17.4
2017-04-02T12:03:11.155Z,17.6
2017-04-02T12:04:13.355Z,17.9
2017-04-02T12:05:15.231Z,18
2017-04-02T12:06:17.080Z,17.4
2017-04-02T12:07:19.258Z,17.6
2017-04-02T12:08:21.443Z,18
2017-04-02T12:09:23.278Z,18.2
2017-04-02T12:10:25.124Z,17.6
2017-04-02T12:11:26.961Z,17.8
2017-04-02T12:12:28.802Z,18.3
2017-04-02T12:13:30.650Z,18.1
2017-04-02T12:14:32.489Z,18.4
2017-04-02T12:15:34.332Z,18.8
2017-04-02T12:16:36.173Z,18.5
2017-04-02T12:17:38.028Z,18.3
2017-04-02T12:18:39.872Z,18.6
2017-04-02T12:19:41.716Z,18.5
2017-04-02T12:20:43.658Z,18.9
2017-04-02T12:21:45.506Z,19
2017-04-02T12:22:47.355Z,18.9
2017-04-02T12:23:49.199Z,19.5
2017-04-02T12:24:51.038Z,19.2
2017-04-02T12:25:52.895Z,19.1
2017-04-02T12:26:54.737Z,19.6
2017-04-02T12:27:56.583Z,19.6
2017-04-02T12:28:58.421Z,19.6
2017-04-02T12:30:00.608Z,19.3
2017-04-02T12:31:02.451Z,18.6
2017-04-02T12:32:04.292Z,18.9
2017-04-02T12:33:06.151Z,18.8
2017-04-02T12:34:07.999Z,19
2017-04-02T12:35:09.856Z,19.5
2017-04-02T12:36:11.704Z,19.3
2017-04-02T12:37:13.554Z,18.9
2017-04-02T12:38:15.733Z,18.7
2017-04-02T12:39:17.586Z,18.6
2017-04-02T12:40:19.428Z,18.8
2017-04-02T12:41:21.311Z,18.1
2017-04-02T12:42:23.159Z,18.3
2017-04-02T12:43:25.004Z,17.7
2017-04-02T12:44:26.857Z,17.9
2017-04-02T12:45:28.703Z,18.3
2017-04-02T12:46:30.544Z,17.9
2017-04-02T12:47:32.395Z,18.6
2017-04-02T12:48:34.241Z,18.4
2017-04-02T12:49:36.087Z,18.4
2017-04-02T12:50:37.935Z,18.7
2017-04-02T12:51:39.796Z,19
2017-04-02T12:52:41.645Z,19.3
2017-04-02T12:53:43.495Z,19.9
2017-04-02T12:54:45.350Z,19.3
2017-04-02T12:55:47.194Z,19.6
2017-04-02T12:56:49.041Z,18.8
2017-04-02T12:57:50.888Z,18.5
2017-04-02T12:58:52.740Z,18.6
2017-04-02T12:59:54.580Z,18.4
2017-04-02T13:00:56.429Z,18.2
2017-04-02T13:01:58.277Z,18.1
2017-04-02T13:03:00.457Z,18.3
2017-04-02T13:04:02.644Z,18
2017-04-02T13:05:04.498Z,18.3
2017-04-02T13:06:06.688Z,18.1
2017-04-02T13:07:08.527Z,18
2017-04-02T13:08:10.375Z,17.9
2017-04-02T13:09:12.222Z,17.7
2017-04-02T13:10:14.069Z,17.6
2017-04-02T13:11:15.913Z,17.5
2017-04-02T13:12:17.760Z,17.2
2017-04-02T13:13:19.601Z,17.4
2017-04-02T13:14:21.451Z,17.2
2017-04-02T13:15:23.295Z,17.4
2017-04-02T13:16:25.137Z,17.2
2017-04-02T13:17:26.981Z,17.1
2017-04-02T13:18:28.831Z,17.2
2017-04-02T13:19:30.674Z,17
2017-04-02T13:20:32.520Z,16.8
2017-04-02T13:21:34.366Z,17.1
2017-04-02T13:22:36.206Z,17
2017-04-02T13:23:38.051Z,17.2
2017-04-02T13:24:39.893Z,17.3
2017-04-02T13:25:41.740Z,17.3
2017-04-02T13:26:43.585Z,17.4
2017-04-02T13:27:45.430Z,17.5
2017-04-02T13:28:47.266Z,17.6
2017-04-02T13:29:49.462Z,17.6
2017-04-02T13:30:51.300Z,17.5
2017-04-02T13:31:53.137Z,17.2
2017-04-02T13:32:54.987Z,17.2
2017-04-02T13:33:56.869Z,16.9
2017-04-02T13:34:58.712Z,17
2017-04-02T13:36:00.902Z,16.8
2017-04-02T13:37:02.741Z,16.8
2017-04-02T13:38:04.584Z,17.5
2017-04-02T13:39:06.425Z,17.6
2017-04-02T13:40:08.271Z,18
2017-04-02T13:41:10.462Z,18
2017-04-02T13:42:12.316Z,18.6
2017-04-02T13:43:14.157Z,18.9
2017-04-02T13:44:16.333Z,18.8
2017-04-02T13:45:18.174Z,19.1
2017-04-02T13:46:20.020Z,19.2
2017-04-02T13:47:22.254Z,19.5
2017-04-02T13:48:24.438Z,19.3
2017-04-02T13:49:26.292Z,19.2